Time;durP1;ratioP1;P1;durP2;ratioP2;P2;SDS_P1;SDS_P2;PMS_P1;PMS_P2;Temp;Humidity;BMP_temperature;BMP_pressure;BME280_temperature;BME280_humidity;BME280_pressure;Samples;Min_cycle;Max_cycle;Signal;HPM_P1;HPM_P2
2023/09/02 00:00:47;;;;;;;6.90;5.45;;;14.50;99.90;;;;;;5012704;28;20057;-53
2023/09/02 00:03:12;;;;;;;7.30;5.82;;;14.50;99.90;;;;;;5013192;28;20471;-52
2023/09/02 00:05:38;;;;;;;7.03;5.22;;;14.40;99.90;;;;;;5012276;28;20032;-53
2023/09/02 00:08:04;;;;;;;6.60;5.72;;;14.40;99.90;;;;;;5012398;28;20124;-52
2023/09/02 00:10:29;;;;;;;8.15;6.32;;;14.50;99.90;;;;;;5012948;28;20021;-51
2023/09/02 00:12:55;;;;;;;10.32;5.70;;;14.50;99.90;;;;;;5011117;28;20022;-52
2023/09/02 00:15:20;;;;;;;9.68;4.53;;;14.40;99.90;;;;;;5011997;28;20026;-52
2023/09/02 00:17:47;;;;;;;5.03;4.50;;;14.40;99.90;;;;;;5012166;28;20456;-52
2023/09/02 00:20:12;;;;;;;7.07;5.75;;;14.40;99.90;;;;;;5012497;28;20527;-53
2023/09/02 00:22:38;;;;;;;6.43;4.97;;;14.40;99.90;;;;;;5011906;28;20021;-52
2023/09/02 00:25:04;;;;;;;6.53;5.03;;;14.30;99.90;;;;;;5026794;28;20502;-53
2023/09/02 00:27:29;;;;;;;7.82;6.25;;;14.30;99.90;;;;;;5012237;28;20022;-52
2023/09/02 00:29:55;;;;;;;6.63;4.90;;;14.30;99.90;;;;;;5017762;28;20032;-52
2023/09/02 00:32:20;;;;;;;6.97;5.13;;;14.30;99.90;;;;;;5022437;28;20097;-52
2023/09/02 00:34:47;;;;;;;7.18;5.95;;;14.20;99.90;;;;;;5020426;28;20402;-53
2023/09/02 00:37:13;;;;;;;5.22;4.70;;;14.10;99.90;;;;;;5020969;28;20148;-52
2023/09/02 00:39:38;;;;;;;8.95;6.10;;;14.10;99.90;;;;;;5031230;28;20048;-52
2023/09/02 00:42:06;;;;;;;7.25;5.55;;;14.10;99.90;;;;;;5031526;28;20380;-52
2023/09/02 00:44:34;;;;;;;5.68;5.07;;;14.10;99.90;;;;;;5031167;28;20090;-52
2023/09/02 00:47:01;;;;;;;5.82;4.90;;;14.10;99.90;;;;;;5031489;28;20037;-53
2023/09/02 00:49:27;;;;;;;8.13;5.78;;;14.10;99.90;;;;;;5046997;28;20022;-52
2023/09/02 00:51:53;;;;;;;9.50;5.95;;;14.10;99.90;;;;;;5031478;28;20028;-52
2023/09/02 00:54:18;;;;;;;7.88;6.22;;;14.10;99.90;;;;;;5030849;28;20526;-52
2023/09/02 00:56:44;;;;;;;6.55;5.72;;;14.00;99.90;;;;;;5031202;28;20041;-52
2023/09/02 00:59:10;;;;;;;8.32;6.05;;;14.00;99.90;;;;;;5031280;28;20026;-52
2023/09/02 01:01:39;;;;;;;8.13;6.13;;;14.00;99.90;;;;;;5031093;28;20108;-52
2023/09/02 01:04:06;;;;;;;6.05;5.40;;;14.00;99.90;;;;;;5046065;28;20075;-51
2023/09/02 01:06:34;;;;;;;10.40;5.97;;;14.00;99.90;;;;;;5031200;28;20025;-51
2023/09/02 01:09:00;;;;;;;6.20;5.20;;;14.10;99.90;;;;;;5031488;28;20485;-52
2023/09/02 01:11:26;;;;;;;7.43;6.03;;;14.10;99.90;;;;;;5030921;28;20025;-53
2023/09/02 01:13:51;;;;;;;9.88;6.78;;;14.20;99.90;;;;;;5030930;28;20040;-52
2023/09/02 01:16:17;;;;;;;7.10;5.55;;;14.20;99.90;;;;;;5030527;28;20108;-54
2023/09/02 01:18:42;;;;;;;7.45;5.35;;;14.20;99.90;;;;;;5031214;28;20224;-53
2023/09/02 01:21:33;;;;;;;9.10;5.55;;;14.20;99.90;;;;;;5023644;28;20380;-53
2023/09/02 01:24:07;;;;;;;9.65;4.90;;;14.30;99.90;;;;;;5021834;28;20428;-52
2023/09/02 01:26:51;;;;;;;6.78;5.60;;;14.30;99.90;;;;;;5020987;28;20018;-52
2023/09/02 01:29:20;;;;;;;5.00;4.25;;;14.30;99.90;;;;;;5037181;28;20018;-52
2023/09/02 01:31:47;;;;;;;6.63;5.40;;;14.30;99.90;;;;;;5022250;28;20029;-53
2023/09/02 01:34:15;;;;;;;7.32;5.45;;;14.30;99.90;;;;;;5019398;28;20053;-53
2023/09/02 01:36:46;;;;;;;5.85;5.00;;;14.40;99.90;;;;;;5019158;28;20022;-52
2023/09/02 01:39:13;;;;;;;8.02;6.57;;;14.40;99.90;;;;;;5020208;28;20517;-53
2023/09/02 01:41:39;;;;;;;10.52;6.80;;;14.40;99.90;;;;;;5031038;28;20377;-52
2023/09/02 01:44:05;;;;;;;7.13;5.68;;;14.40;99.90;;;;;;5010437;28;20091;-53
2023/09/02 01:46:30;;;;;;;9.43;6.28;;;14.50;99.90;;;;;;5010969;28;20030;-52
2023/09/02 01:48:56;;;;;;;10.80;7.25;;;14.50;99.90;;;;;;5010818;28;20036;-52
2023/09/02 01:51:23;;;;;;;9.50;5.97;;;14.60;99.90;;;;;;5010935;28;20018;-52
2023/09/02 01:53:48;;;;;;;8.43;5.63;;;14.60;99.90;;;;;;5010611;28;20479;-52
2023/09/02 01:56:14;;;;;;;11.65;7.03;;;14.60;99.90;;;;;;5009941;28;20036;-52
2023/09/02 01:58:40;;;;;;;7.70;5.40;;;14.70;99.90;;;;;;5010424;28;20034;-51
2023/09/02 02:01:05;;;;;;;7.57;5.57;;;14.70;99.90;;;;;;5010908;28;20042;-53
2023/09/02 02:03:37;;;;;;;9.18;7.20;;;14.70;99.90;;;;;;5008866;28;20059;-53
2023/09/02 02:06:05;;;;;;;12.95;7.00;;;14.70;99.90;;;;;;5009768;28;20022;-52
2023/09/02 02:08:45;;;;;;;7.70;6.18;;;14.70;99.90;;;;;;5011462;28;20029;-52
2023/09/02 02:11:13;;;;;;;8.57;6.45;;;14.70;99.90;;;;;;5010392;28;20046;-52
2023/09/02 02:13:38;;;;;;;9.80;7.10;;;14.70;99.90;;;;;;5010149;28;20091;-52
2023/09/02 02:16:04;;;;;;;12.27;7.25;;;14.80;99.90;;;;;;5009704;28;20038;-52
2023/09/02 02:18:30;;;;;;;8.82;6.28;;;14.80;99.90;;;;;;5010291;28;20030;-52
2023/09/02 02:21:04;;;;;;;7.32;6.30;;;14.80;99.90;;;;;;5010949;28;20599;-52
2023/09/02 02:23:29;;;;;;;8.45;6.35;;;14.80;99.90;;;;;;5009937;28;20034;-52
2023/09/02 02:26:03;;;;;;;8.60;6.32;;;14.90;99.90;;;;;;5024979;28;20026;-52
2023/09/02 02:28:29;;;;;;;7.72;6.20;;;14.90;99.90;;;;;;5009946;28;20040;-52
2023/09/02 02:30:56;;;;;;;9.73;6.43;;;14.90;99.90;;;;;;5010115;28;20476;-51
2023/09/02 02:33:21;;;;;;;9.15;6.18;;;14.90;99.90;;;;;;5010040;28;20026;-51
2023/09/02 02:35:47;;;;;;;8.73;6.90;;;14.90;99.90;;;;;;5024418;28;20557;-52
2023/09/02 02:38:12;;;;;;;10.07;7.00;;;14.90;99.90;;;;;;5009585;28;20521;-52
2023/09/02 02:40:38;;;;;;;10.40;6.38;;;14.90;99.90;;;;;;5009737;28;20034;-52
2023/09/02 02:43:04;;;;;;;8.18;6.13;;;14.90;99.90;;;;;;5009729;28;20496;-53
2023/09/02 02:45:30;;;;;;;8.43;6.43;;;15.00;99.90;;;;;;5011469;28;20018;-53
2023/09/02 02:47:57;;;;;;;8.80;6.38;;;15.00;99.90;;;;;;5031494;28;20034;-53
2023/09/02 02:50:22;;;;;;;13.45;6.45;;;15.00;99.90;;;;;;5016383;28;20053;-54
2023/09/02 02:52:49;;;;;;;9.07;7.57;;;15.00;99.90;;;;;;5016306;28;20062;-54
2023/09/02 02:55:15;;;;;;;9.18;7.38;;;15.00;99.90;;;;;;5015876;28;20495;-54
2023/09/02 02:57:40;;;;;;;9.45;7.53;;;15.10;99.90;;;;;;5016276;28;20097;-54
2023/09/02 03:00:08;;;;;;;10.18;6.82;;;15.10;99.90;;;;;;5016415;28;20087;-54
2023/09/02 03:02:34;;;;;;;15.13;9.18;;;15.10;99.90;;;;;;5016142;28;20033;-55
2023/09/02 03:04:59;;;;;;;12.40;9.52;;;15.10;99.90;;;;;;5015731;28;20026;-54
2023/09/02 03:07:25;;;;;;;10.98;8.88;;;15.10;99.90;;;;;;5016173;28;20025;-58
2023/09/02 03:09:50;;;;;;;12.18;9.20;;;15.20;99.90;;;;;;5016192;28;20029;-54
2023/09/02 03:12:16;;;;;;;9.95;7.45;;;15.20;99.90;;;;;;5031278;28;20032;-54
2023/09/02 03:14:42;;;;;;;12.20;8.18;;;15.20;99.90;;;;;;5015836;28;20026;-54
2023/09/02 03:17:07;;;;;;;10.18;8.07;;;15.20;99.90;;;;;;5016479;28;20030;-52
2023/09/02 03:19:33;;;;;;;8.00;7.15;;;15.20;99.90;;;;;;5016189;28;20030;-53
2023/09/02 03:21:58;;;;;;;9.90;7.95;;;15.20;99.90;;;;;;5031222;28;20561;-53
2023/09/02 03:24:24;;;;;;;8.18;6.97;;;15.30;99.90;;;;;;5015716;28;20034;-53
2023/09/02 03:26:49;;;;;;;7.15;5.88;;;15.30;99.90;;;;;;5031460;28;20091;-53
2023/09/02 03:29:15;;;;;;;8.43;6.30;;;15.20;99.90;;;;;;5016553;28;20514;-53
2023/09/02 03:31:40;;;;;;;7.20;6.10;;;15.20;99.90;;;;;;5016424;28;20415;-53
2023/09/02 03:34:06;;;;;;;9.23;7.72;;;15.20;99.90;;;;;;5030716;28;20384;-53
2023/09/02 03:36:32;;;;;;;9.65;8.13;;;15.20;99.90;;;;;;5015700;28;20368;-53
2023/09/02 03:38:58;;;;;;;7.68;6.78;;;15.20;99.90;;;;;;5015977;28;20084;-53
2023/09/02 03:41:23;;;;;;;8.45;7.07;;;15.20;99.90;;;;;;5015960;28;20030;-53
2023/09/02 03:43:49;;;;;;;8.80;7.05;;;15.20;99.90;;;;;;5015775;28;20026;-54
2023/09/02 03:46:15;;;;;;;11.90;8.35;;;15.20;99.90;;;;;;5015432;28;20030;-53
2023/09/02 03:48:40;;;;;;;12.77;9.10;;;15.20;99.90;;;;;;5015754;28;20022;-54
2023/09/02 03:51:17;;;;;;;10.73;9.27;;;15.20;99.90;;;;;;5015758;28;20108;-53
2023/09/02 03:53:43;;;;;;;9.93;8.27;;;15.20;99.90;;;;;;5015919;28;20026;-52
2023/09/02 03:56:09;;;;;;;11.02;8.55;;;15.20;99.90;;;;;;5013903;28;20109;-53
2023/09/02 03:58:36;;;;;;;12.20;9.40;;;15.20;99.90;;;;;;5010721;28;20718;-55
2023/09/02 04:01:02;;;;;;;12.57;9.45;;;15.20;99.90;;;;;;5012697;28;20113;-53
2023/09/02 04:03:31;;;;;;;11.25;8.18;;;15.20;99.90;;;;;;5012524;28;20104;-53
2023/09/02 04:05:57;;;;;;;9.07;7.18;;;15.20;99.90;;;;;;5012135;28;20061;-53
2023/09/02 04:08:25;;;;;;;16.42;9.85;;;15.20;99.90;;;;;;5012442;28;20080;-53
2023/09/02 04:10:53;;;;;;;13.48;9.48;;;15.20;99.90;;;;;;5010958;28;20117;-53
2023/09/02 04:13:25;;;;;;;10.80;8.68;;;15.20;99.90;;;;;;5012242;28;20474;-53
2023/09/02 04:15:58;;;;;;;11.88;8.27;;;15.30;99.90;;;;;;5011912;28;20084;-52
2023/09/02 04:18:24;;;;;;;9.15;7.72;;;15.20;99.90;;;;;;5012234;28;20062;-53
2023/09/02 04:20:50;;;;;;;10.55;8.13;;;15.20;99.90;;;;;;5023167;28;20067;-52
2023/09/02 04:23:16;;;;;;;12.10;9.27;;;15.20;99.90;;;;;;5020152;28;20471;-53
2023/09/02 04:25:46;;;;;;;10.95;8.82;;;15.30;99.90;;;;;;5025852;28;20026;-53
2023/09/02 04:28:15;;;;;;;10.52;8.88;;;15.30;99.90;;;;;;5020792;28;20049;-53
2023/09/02 04:30:42;;;;;;;13.77;10.13;;;15.30;99.90;;;;;;5019851;28;20108;-53
2023/09/02 04:33:12;;;;;;;11.43;7.88;;;15.30;99.90;;;;;;5019689;28;20112;-52
2023/09/02 04:35:38;;;;;;;14.02;9.93;;;15.30;99.90;;;;;;5019358;28;20022;-53
2023/09/02 04:38:04;;;;;;;13.32;9.93;;;15.30;99.90;;;;;;5019434;28;20109;-52
2023/09/02 04:40:30;;;;;;;10.10;8.05;;;15.30;99.90;;;;;;5021682;28;20056;-51
2023/09/02 04:42:56;;;;;;;14.40;9.97;;;15.40;99.90;;;;;;5021728;28;20084;-52
2023/09/02 04:45:22;;;;;;;11.85;9.23;;;15.30;99.90;;;;;;5019998;28;20022;-51
2023/09/02 04:47:49;;;;;;;14.65;10.45;;;15.40;99.90;;;;;;5021825;28;20017;-52
2023/09/02 04:50:15;;;;;;;12.88;9.73;;;15.40;99.90;;;;;;5019302;28;20061;-51
2023/09/02 04:52:44;;;;;;;15.10;9.52;;;15.40;99.90;;;;;;5011417;28;20030;-52
2023/09/02 04:55:10;;;;;;;9.95;7.97;;;15.40;99.90;;;;;;5011062;28;20030;-53
2023/09/02 04:57:36;;;;;;;13.02;9.30;;;15.40;99.90;;;;;;5011357;28;20484;-52
2023/09/02 05:00:02;;;;;;;11.77;9.77;;;15.50;99.90;;;;;;5011436;28;20022;-51
2023/09/02 05:02:28;;;;;;;15.85;9.90;;;15.50;99.90;;;;;;5011562;28;20026;-53
2023/09/02 05:04:53;;;;;;;19.25;10.65;;;15.50;99.90;;;;;;5021103;28;20033;-53
2023/09/02 05:07:19;;;;;;;16.38;9.75;;;15.50;99.90;;;;;;5028233;28;20061;-52
2023/09/02 05:09:44;;;;;;;18.30;11.10;;;15.50;99.90;;;;;;5021857;28;20044;-53
2023/09/02 05:12:09;;;;;;;11.52;9.15;;;15.60;99.90;;;;;;5011114;28;20034;-52
2023/09/02 05:14:37;;;;;;;12.23;10.00;;;15.60;99.90;;;;;;5010730;28;20065;-53
2023/09/02 05:17:03;;;;;;;12.80;9.40;;;15.60;99.90;;;;;;5011043;28;20457;-53
2023/09/02 05:19:28;;;;;;;12.48;9.57;;;15.70;99.90;;;;;;5011173;28;20029;-54
2023/09/02 05:21:54;;;;;;;10.52;8.40;;;15.70;99.90;;;;;;5010952;28;20034;-53
2023/09/02 05:24:20;;;;;;;12.85;9.40;;;15.70;99.90;;;;;;5010486;28;20030;-53
2023/09/02 05:26:45;;;;;;;17.23;10.85;;;15.70;99.90;;;;;;5026445;28;20184;-53
2023/09/02 05:29:11;;;;;;;14.18;10.07;;;15.80;99.90;;;;;;5011006;28;20032;-53
2023/09/02 05:31:36;;;;;;;14.50;10.23;;;15.80;99.90;;;;;;5010900;28;20550;-53
2023/09/02 05:34:02;;;;;;;14.60;10.93;;;15.80;99.90;;;;;;5010619;28;20033;-52
2023/09/02 05:36:27;;;;;;;15.52;9.95;;;15.90;99.90;;;;;;5010644;28;20032;-53
2023/09/02 05:38:53;;;;;;;16.88;11.27;;;15.90;99.90;;;;;;5010901;28;20408;-52
2023/09/02 05:41:18;;;;;;;12.10;9.05;;;16.00;99.90;;;;;;5010652;28;20138;-52
2023/09/02 05:43:44;;;;;;;13.93;9.05;;;16.00;99.90;;;;;;5010591;28;20034;-52
2023/09/02 05:46:09;;;;;;;10.90;8.40;;;16.00;99.90;;;;;;5009831;28;20372;-52
2023/09/02 05:48:35;;;;;;;11.93;9.25;;;16.00;99.90;;;;;;5025508;28;20387;-52
2023/09/02 05:51:00;;;;;;;11.15;8.07;;;16.00;99.90;;;;;;5010328;28;20038;-52
2023/09/02 05:53:26;;;;;;;9.82;7.78;;;15.90;99.90;;;;;;5010285;28;20022;-51
2023/09/02 05:55:55;;;;;;;16.00;10.02;;;16.00;99.90;;;;;;5010012;28;20026;-51
2023/09/02 05:58:27;;;;;;;14.20;7.90;;;16.00;99.90;;;;;;5010389;28;20112;-52
2023/09/02 06:00:52;;;;;;;10.57;7.88;;;16.00;99.90;;;;;;5010277;28;20022;-52
2023/09/02 06:03:18;;;;;;;11.82;8.05;;;16.00;99.90;;;;;;5009639;28;20029;-52
2023/09/02 06:05:43;;;;;;;17.58;8.63;;;16.00;99.90;;;;;;5009902;28;20145;-52
2023/09/02 06:08:09;;;;;;;9.18;7.60;;;16.00;99.90;;;;;;5025347;28;20029;-52
2023/09/02 06:10:35;;;;;;;12.30;7.95;;;16.10;99.90;;;;;;5010593;28;20014;-53
2023/09/02 06:13:01;;;;;;;9.38;7.25;;;16.10;99.90;;;;;;5009860;28;20035;-51
2023/09/02 06:15:26;;;;;;;9.15;7.00;;;16.10;99.90;;;;;;5009430;28;20061;-51
2023/09/02 06:17:52;;;;;;;11.18;7.32;;;16.20;99.90;;;;;;5009803;28;20030;-52
2023/09/02 06:20:20;;;;;;;7.95;6.80;;;16.20;99.90;;;;;;5009487;28;20030;-52
2023/09/02 06:22:46;;;;;;;8.32;6.72;;;16.20;99.90;;;;;;5010030;28;20467;-53
2023/09/02 06:25:12;;;;;;;10.15;8.02;;;16.30;99.90;;;;;;5009197;28;20056;-53
2023/09/02 06:27:38;;;;;;;8.07;6.60;;;16.20;99.90;;;;;;5010455;28;20391;-53
2023/09/02 06:30:04;;;;;;;10.65;8.45;;;16.20;99.90;;;;;;5020029;28;20081;-53
2023/09/02 06:32:30;;;;;;;10.60;8.35;;;16.30;99.90;;;;;;5028262;28;20033;-53
2023/09/02 06:34:55;;;;;;;11.80;8.15;;;16.20;99.90;;;;;;5029306;28;20513;-53
2023/09/02 06:37:21;;;;;;;12.63;8.30;;;16.20;99.90;;;;;;5029879;28;20044;-53
2023/09/02 06:39:52;;;;;;;14.65;9.10;;;16.20;99.90;;;;;;5044482;28;20117;-53
2023/09/02 06:42:17;;;;;;;;;;;16.20;99.90;;;;;;5030239;28;20021;-53
2023/09/02 06:44:46;;;;;;;9.73;8.10;;;16.20;99.90;;;;;;5027839;28;19932;-53
2023/09/02 06:47:13;;;;;;;18.00;10.45;;;16.20;99.90;;;;;;5029418;28;20026;-53
2023/09/02 06:49:39;;;;;;;10.68;8.32;;;16.10;99.90;;;;;;5044616;28;20036;-52
2023/09/02 06:52:04;;;;;;;14.10;8.63;;;16.10;99.90;;;;;;5029694;28;20105;-53
2023/09/02 06:54:30;;;;;;;13.82;9.63;;;16.10;99.90;;;;;;5029060;28;20446;-52
2023/09/02 06:56:55;;;;;;;30.98;21.23;;;16.10;99.90;;;;;;5029694;28;20033;-53
2023/09/02 06:59:23;;;;;;;24.63;16.17;;;16.10;99.90;;;;;;5029356;28;20554;-52
2023/09/02 07:01:48;;;;;;;19.77;12.65;;;16.20;99.90;;;;;;5029730;28;20022;-53
2023/09/02 07:04:14;;;;;;;14.77;10.27;;;16.20;99.90;;;;;;5028389;28;20033;-53
2023/09/02 07:06:39;;;;;;;12.13;8.57;;;16.30;99.90;;;;;;5009796;28;20034;-53
2023/09/02 07:09:05;;;;;;;13.07;9.13;;;16.30;99.90;;;;;;5009585;28;20476;-52
2023/09/02 07:11:30;;;;;;;13.98;9.95;;;16.30;99.90;;;;;;5012103;28;20422;-53
2023/09/02 07:13:56;;;;;;;11.25;8.60;;;16.30;99.90;;;;;;5019064;28;20046;-53
2023/09/02 07:16:23;;;;;;;13.43;9.60;;;16.40;99.90;;;;;;5017151;28;20029;-53
2023/09/02 07:18:48;;;;;;;9.25;7.75;;;16.40;99.90;;;;;;5018984;28;20025;-53
2023/09/02 07:21:14;;;;;;;9.57;7.82;;;16.40;99.90;;;;;;5017368;28;20045;-53
2023/09/02 07:23:39;;;;;;;10.57;7.63;;;16.50;99.90;;;;;;5017763;28;20387;-53
2023/09/02 07:26:05;;;;;;;11.50;8.48;;;16.50;99.90;;;;;;5018800;28;20131;-53
2023/09/02 07:28:31;;;;;;;9.88;8.20;;;16.50;99.90;;;;;;5016612;28;20041;-53
2023/09/02 07:30:58;;;;;;;10.45;8.43;;;16.50;99.90;;;;;;5017333;28;20024;-53
2023/09/02 07:33:24;;;;;;;10.45;8.27;;;16.50;99.90;;;;;;5020859;28;20025;-53
2023/09/02 07:35:50;;;;;;;13.65;7.78;;;16.60;99.90;;;;;;5021654;28;20060;-53
2023/09/02 07:38:15;;;;;;;10.95;8.88;;;16.60;99.90;;;;;;5026642;28;20045;-53
2023/09/02 07:40:41;;;;;;;12.13;7.90;;;16.60;99.90;;;;;;5023431;28;20026;-53
2023/09/02 07:43:06;;;;;;;16.30;10.18;;;16.60;99.90;;;;;;5021401;28;20024;-53
2023/09/02 07:45:32;;;;;;;12.20;8.65;;;16.70;99.90;;;;;;5018789;28;20036;-53
2023/09/02 07:47:57;;;;;;;12.07;8.65;;;16.60;99.90;;;;;;5023130;28;20490;-53
2023/09/02 07:50:23;;;;;;;11.00;7.25;;;16.70;99.90;;;;;;5019911;28;20022;-54
2023/09/02 07:52:48;;;;;;;11.77;9.35;;;16.70;99.90;;;;;;5022262;28;20025;-53
2023/09/02 07:55:14;;;;;;;13.30;8.95;;;16.70;99.90;;;;;;5022585;28;20121;-53
2023/09/02 07:57:40;;;;;;;11.27;7.65;;;16.70;99.90;;;;;;5020748;28;20109;-53
2023/09/02 08:00:09;;;;;;;10.57;8.40;;;16.80;99.90;;;;;;5038886;28;20022;-53
2023/09/02 08:02:34;;;;;;;9.90;8.43;;;16.90;99.90;;;;;;5021318;28;20021;-53
2023/09/02 08:05:00;;;;;;;7.65;6.18;;;16.90;99.90;;;;;;5020747;28;20541;-53
2023/09/02 08:07:25;;;;;;;7.90;7.10;;;17.00;99.90;;;;;;5012585;28;20033;-54
2023/09/02 08:09:51;;;;;;;7.35;6.40;;;17.20;99.90;;;;;;5012371;28;20037;-53
2023/09/02 08:12:17;;;;;;;10.43;6.65;;;17.40;99.90;;;;;;5012364;28;20022;-54
2023/09/02 08:14:42;;;;;;;6.57;5.65;;;17.70;99.90;;;;;;5012369;28;20032;-54
2023/09/02 08:17:08;;;;;;;8.10;6.32;;;17.90;99.90;;;;;;5010876;28;20038;-54
2023/09/02 08:19:33;;;;;;;7.85;6.25;;;18.10;99.90;;;;;;5012736;28;20449;-54
2023/09/02 08:21:59;;;;;;;12.32;6.90;;;18.20;99.90;;;;;;5017322;28;20037;-54
2023/09/02 08:24:24;;;;;;;5.72;5.15;;;18.30;99.90;;;;;;5014622;28;20030;-54
2023/09/02 08:26:50;;;;;;;9.85;7.82;;;18.40;99.90;;;;;;5014956;28;20017;-54
2023/09/02 08:29:16;;;;;;;7.38;5.70;;;18.30;99.90;;;;;;5024683;28;20052;-53
2023/09/02 08:31:41;;;;;;;11.90;7.97;;;18.40;99.90;;;;;;5013932;28;20033;-53
2023/09/02 08:34:07;;;;;;;9.45;8.40;;;18.40;99.90;;;;;;5016583;28;20040;-53
2023/09/02 08:36:32;;;;;;;7.57;6.30;;;18.20;99.90;;;;;;5011937;28;20034;-54
2023/09/02 08:38:58;;;;;;;7.63;6.50;;;18.20;99.90;;;;;;5027313;28;20037;-54
2023/09/02 08:41:30;;;;;;;8.77;7.25;;;18.20;99.90;;;;;;5010249;28;20030;-53
2023/09/02 08:44:03;;;;;;;11.60;6.68;;;18.20;99.90;;;;;;5019200;28;20064;-54
2023/09/02 08:46:31;;;;;;;11.98;9.25;;;18.30;99.90;;;;;;5025923;28;20017;-54
2023/09/02 08:48:57;;;;;;;8.65;7.18;;;18.40;99.90;;;;;;5027794;28;20399;-54
2023/09/02 08:51:24;;;;;;;9.38;7.43;;;18.30;99.90;;;;;;5009905;28;20530;-53
2023/09/02 08:53:53;;;;;;;8.57;6.97;;;18.40;99.90;;;;;;5019427;28;20451;-53
2023/09/02 08:56:19;;;;;;;7.47;6.70;;;18.40;99.90;;;;;;5011021;28;20057;-53
2023/09/02 08:58:46;;;;;;;10.07;8.15;;;18.60;99.90;;;;;;5028659;28;20034;-53
2023/09/02 09:01:17;;;;;;;12.18;8.48;;;18.60;99.90;;;;;;5029783;28;20064;-53
2023/09/02 09:03:49;;;;;;;10.23;7.18;;;18.70;99.90;;;;;;5021965;28;20034;-54
2023/09/02 09:06:18;;;;;;;8.77;6.38;;;18.80;99.90;;;;;;5011014;28;20144;-54
2023/09/02 09:08:45;;;;;;;8.55;7.53;;;19.00;99.90;;;;;;5010297;28;20022;-54
2023/09/02 09:11:12;;;;;;;12.73;8.00;;;19.30;99.90;;;;;;5012534;28;20507;-53
2023/09/02 09:13:44;;;;;;;7.60;6.43;;;20.40;99.90;;;;;;5010490;28;20065;-53
2023/09/02 09:16:15;;;;;;;6.22;5.63;;;21.20;99.90;;;;;;5009314;28;20026;-54
2023/09/02 09:18:41;;;;;;;7.32;6.03;;;22.20;99.90;;;;;;5010422;28;20033;-54
2023/09/02 09:21:07;;;;;;;10.25;6.18;;;22.90;99.90;;;;;;5010897;28;20018;-53
2023/09/02 09:23:35;;;;;;;6.78;6.13;;;22.90;99.90;;;;;;5012499;28;20443;-54
2023/09/02 09:26:05;;;;;;;9.65;7.45;;;22.60;99.90;;;;;;5015150;28;20073;-53
2023/09/02 09:28:58;;;;;;;6.20;5.60;;;22.20;99.90;;;;;;5010714;28;20241;-53
2023/09/02 09:31:25;;;;;;;6.70;6.10;;;21.90;99.90;;;;;;5010690;28;20022;-53
2023/09/02 09:33:58;;;;;;;7.18;6.15;;;21.50;99.90;;;;;;5020948;28;20030;-54
2023/09/02 09:36:26;;;;;;;7.43;6.65;;;21.20;99.90;;;;;;5013939;28;20032;-54
2023/09/02 09:38:56;;;;;;;10.82;7.15;;;20.90;99.90;;;;;;5010991;28;20518;-52
2023/09/02 09:41:23;;;;;;;10.80;8.20;;;20.70;99.90;;;;;;5010773;28;20105;-54
2023/09/02 09:44:10;;;;;;;8.02;6.72;;;20.60;99.90;;;;;;5010170;28;20372;-54
2023/09/02 09:46:48;;;;;;;7.53;6.72;;;20.40;99.90;;;;;;5010367;28;20348;-53
2023/09/02 09:49:33;;;;;;;7.22;5.88;;;20.20;99.90;;;;;;5009081;28;20037;-54
2023/09/02 09:51:59;;;;;;;7.97;6.82;;;20.10;99.90;;;;;;5009867;28;20716;-53
2023/09/02 09:54:41;;;;;;;9.77;7.53;;;19.90;99.90;;;;;;5009766;28;20065;-54
2023/09/02 09:57:09;;;;;;;6.90;5.97;;;19.90;99.90;;;;;;5010434;28;20029;-54
2023/09/02 09:59:34;;;;;;;8.35;6.60;;;19.80;99.90;;;;;;5010066;28;20387;-52
2023/09/02 10:02:05;;;;;;;6.85;6.25;;;19.70;99.90;;;;;;5010195;28;20026;-52
2023/09/02 10:04:32;;;;;;;9.18;6.22;;;19.80;99.90;;;;;;5010091;28;20060;-54
2023/09/02 10:07:00;;;;;;;8.60;7.05;;;19.80;99.90;;;;;;5010079;28;20483;-54
2023/09/02 10:09:43;;;;;;;8.40;7.28;;;19.90;99.90;;;;;;5010120;28;20030;-54
2023/09/02 10:12:13;;;;;;;7.35;6.40;;;20.00;99.90;;;;;;5010115;28;20014;-55
2023/09/02 10:14:40;;;;;;;7.67;6.47;;;20.00;99.90;;;;;;5009619;28;20487;-54
2023/09/02 10:17:06;;;;;;;8.05;7.07;;;20.30;99.90;;;;;;5009616;28;20033;-53
2023/09/02 10:19:36;;;;;;;6.10;5.53;;;20.40;99.90;;;;;;5009477;28;20022;-53
2023/09/02 10:22:03;;;;;;;7.18;6.40;;;20.50;99.90;;;;;;5010317;28;20125;-53
2023/09/02 10:24:34;;;;;;;6.32;5.45;;;20.70;99.90;;;;;;5009658;28;20038;-53
2023/09/02 10:27:06;;;;;;;9.20;7.68;;;20.90;99.90;;;;;;5009957;28;20087;-53
2023/09/02 10:29:34;;;;;;;7.57;5.97;;;22.30;99.90;;;;;;5009848;28;20018;-54
2023/09/02 10:32:09;;;;;;;6.63;5.93;;;24.00;99.90;;;;;;5024262;28;20057;-54
2023/09/02 10:35:07;;;;;;;5.60;4.78;;;25.40;99.90;;;;;;5029022;28;20037;-54
2023/09/02 10:37:54;;;;;;;7.32;5.88;;;28.00;99.90;;;;;;4995765;28;20110;-54
2023/09/02 10:40:24;;;;;;;6.93;4.53;;;27.90;98.10;;;;;;5029443;28;20499;-54
2023/09/02 10:42:52;;;;;;;4.63;3.88;;;27.20;97.60;;;;;;5029500;28;20045;-54
2023/09/02 10:45:18;;;;;;;4.53;4.00;;;26.80;98.00;;;;;;5029269;28;20026;-53
2023/09/02 10:47:45;;;;;;;5.20;4.15;;;26.50;99.10;;;;;;5029673;28;20438;-53
2023/09/02 10:50:11;;;;;;;4.75;4.35;;;26.90;98.70;;;;;;5029582;28;20044;-53
2023/09/02 10:52:37;;;;;;;5.03;4.18;;;27.80;97.00;;;;;;5029453;28;20033;-54
2023/09/02 10:55:12;;;;;;;4.03;3.50;;;28.80;97.00;;;;;;5028712;28;20399;-54
2023/09/02 10:58:03;;;;;;;4.63;3.88;;;29.30;94.70;;;;;;5029351;28;20041;-54
2023/09/02 11:00:29;;;;;;;4.18;3.63;;;30.10;93.70;;;;;;5026797;28;20061;-54
2023/09/02 11:02:56;;;;;;;4.82;4.43;;;30.50;92.40;;;;;;5029815;28;20049;-54
2023/09/02 11:05:24;;;;;;;5.18;3.75;;;31.10;90.40;;;;;;5028824;28;20026;-56
2023/09/02 11:07:50;;;;;;;4.07;3.00;;;31.50;87.10;;;;;;5032557;28;20025;-56
2023/09/02 11:10:17;;;;;;;7.45;3.72;;;31.70;88.70;;;;;;5033164;28;20021;-56
2023/09/02 11:13:04;;;;;;;4.07;3.63;;;32.50;84.30;;;;;;5031652;28;20029;-56
2023/09/02 11:15:31;;;;;;;4.20;3.80;;;32.80;82.10;;;;;;5032603;28;20025;-56
2023/09/02 11:17:57;;;;;;;3.65;3.22;;;32.20;83.40;;;;;;5032934;28;20026;-56
2023/09/02 11:20:25;;;;;;;3.22;2.92;;;32.70;82.70;;;;;;5033288;28;20080;-56
2023/09/02 11:23:06;;;;;;;5.13;3.20;;;32.50;84.00;;;;;;5032935;28;20364;-56
2023/09/02 11:25:37;;;;;;;2.72;2.53;;;31.40;78.20;;;;;;5032442;28;20030;-56
2023/09/02 11:28:12;;;;;;;2.58;2.38;;;31.30;82.00;;;;;;5032977;28;20064;-56
2023/09/02 11:30:39;;;;;;;2.58;2.35;;;31.20;82.20;;;;;;5032950;28;20510;-56
2023/09/02 11:33:09;;;;;;;3.40;2.55;;;31.90;80.10;;;;;;5032660;28;20553;-56
2023/09/02 11:35:37;;;;;;;2.33;2.13;;;31.20;81.60;;;;;;5032522;28;20108;-57
2023/09/02 11:38:16;;;;;;;3.47;2.63;;;30.60;81.20;;;;;;5032558;28;20522;-57
2023/09/02 11:40:42;;;;;;;3.30;2.40;;;29.60;82.20;;;;;;5032968;28;20057;-57
2023/09/02 11:43:07;;;;;;;4.18;3.00;;;28.70;85.90;;;;;;5032397;28;20049;-57
2023/09/02 11:45:35;;;;;;;3.20;2.92;;;28.10;88.30;;;;;;5031920;28;20037;-57
2023/09/02 11:48:06;;;;;;;5.20;3.08;;;27.60;88.90;;;;;;5047905;28;20026;-56
2023/09/02 11:50:32;;;;;;;2.70;2.50;;;26.90;90.20;;;;;;5032777;28;20100;-56
2023/09/02 11:52:58;;;;;;;4.25;3.33;;;26.60;90.60;;;;;;5032355;28;20025;-56
2023/09/02 11:55:25;;;;;;;2.95;2.75;;;26.20;91.60;;;;;;5032004;28;20099;-56
2023/09/02 11:57:51;;;;;;;3.28;3.03;;;26.40;91.70;;;;;;5032702;28;20559;-58
2023/09/02 12:00:19;;;;;;;3.70;2.72;;;26.50;92.00;;;;;;5032339;28;20033;-58
2023/09/02 12:02:46;;;;;;;2.65;2.45;;;26.50;91.50;;;;;;5032177;28;20030;-58
2023/09/02 12:05:13;;;;;;;5.53;3.03;;;27.00;91.00;;;;;;5031591;28;20033;-58
2023/09/02 12:07:40;;;;;;;3.25;2.55;;;27.90;90.00;;;;;;5047246;28;20534;-58
2023/09/02 12:10:17;;;;;;;2.67;2.45;;;28.10;84.40;;;;;;5032097;28;20025;-58
2023/09/02 12:12:45;;;;;;;2.35;2.03;;;28.50;87.90;;;;;;5031995;28;20487;-58
2023/09/02 12:15:20;;;;;;;2.42;2.17;;;28.50;88.50;;;;;;5031479;28;20037;-58
2023/09/02 12:17:47;;;;;;;2.30;2.10;;;28.80;85.90;;;;;;5031318;28;20037;-58
2023/09/02 12:20:14;;;;;;;2.20;2.00;;;28.90;84.80;;;;;;5031760;28;20040;-58
2023/09/02 12:22:41;;;;;;;3.03;2.67;;;29.10;84.20;;;;;;5031831;28;20033;-58
2023/09/02 12:25:20;;;;;;;2.40;2.20;;;29.40;87.20;;;;;;5031650;28;20072;-58
2023/09/02 12:27:47;;;;;;;2.38;2.15;;;29.30;84.10;;;;;;5032084;28;20037;-57
2023/09/02 12:30:13;;;;;;;2.88;2.17;;;29.40;81.50;;;;;;5024625;28;20026;-58
2023/09/02 12:32:39;;;;;;;2.28;2.08;;;29.10;85.50;;;;;;5027055;28;20365;-58
2023/09/02 12:35:09;;;;;;;2.38;1.83;;;29.00;81.90;;;;;;5031044;28;20110;-58
2023/09/02 12:37:35;;;;;;;1.80;1.70;;;28.60;83.10;;;;;;5019066;28;20037;-58
2023/09/02 12:40:09;;;;;;;2.30;2.10;;;28.20;85.50;;;;;;5011642;28;20037;-57
2023/09/02 12:42:35;;;;;;;2.85;1.98;;;27.80;85.40;;;;;;5019784;28;20041;-57
2023/09/02 12:45:04;;;;;;;2.40;2.20;;;27.50;85.30;;;;;;5010935;28;20033;-56